Time;durP1;ratioP1;P1;durP2;ratioP2;P2;SDS_P1;SDS_P2;PMS_P1;PMS_P2;Temp;Humidity;BMP_temperature;BMP_pressure;BME280_temperature;BME280_humidity;BME280_pressure;Samples;Min_cycle;Max_cycle;Signal;HPM_P1;HPM_P2
2023/05/15 00:01:50;;;;;;;39.97;36.30;;;7.40;99.90;;;;;;4998378;28;20038;-77
2023/05/15 00:04:16;;;;;;;40.72;36.92;;;7.40;99.90;;;;;;5026897;28;20056;-77
2023/05/15 00:06:43;;;;;;;41.47;37.47;;;7.30;99.90;;;;;;4981147;28;20053;-78
2023/05/15 00:09:10;;;;;;;40.65;36.83;;;7.20;99.90;;;;;;5002990;28;20048;-78
2023/05/15 00:11:36;;;;;;;41.05;37.05;;;7.20;99.90;;;;;;5005071;28;20055;-76
2023/05/15 00:14:03;;;;;;;38.90;35.20;;;7.20;99.90;;;;;;5016732;28;20050;-78
2023/05/15 00:16:30;;;;;;;37.42;33.92;;;7.10;99.90;;;;;;5008881;28;20046;-78
2023/05/15 00:18:57;;;;;;;38.67;35.13;;;7.10;99.90;;;;;;5001836;28;20045;-76
2023/05/15 00:21:24;;;;;;;38.65;33.78;;;7.10;99.90;;;;;;4994683;28;20569;-77
2023/05/15 00:23:52;;;;;;;36.38;33.08;;;7.00;99.90;;;;;;4990870;28;20038;-77
2023/05/15 00:26:22;;;;;;;38.42;34.72;;;6.90;99.90;;;;;;4991878;28;20125;-77
2023/05/15 00:28:49;;;;;;;37.22;33.70;;;6.90;99.90;;;;;;5018138;28;20042;-76
2023/05/15 00:31:16;;;;;;;38.67;34.97;;;6.80;99.90;;;;;;5000058;28;20047;-77
2023/05/15 00:33:43;;;;;;;39.63;35.78;;;6.80;99.90;;;;;;5007717;28;20668;-76
2023/05/15 00:36:10;;;;;;;40.85;36.88;;;6.90;99.90;;;;;;5010063;28;20038;-77
2023/05/15 00:38:36;;;;;;;38.33;34.20;;;7.00;99.90;;;;;;5012354;28;20034;-77
2023/05/15 00:41:05;;;;;;;37.88;34.28;;;6.90;99.90;;;;;;4997650;28;20072;-76
2023/05/15 00:43:33;;;;;;;39.17;35.38;;;7.00;99.90;;;;;;5015155;28;20054;-76
2023/05/15 00:46:01;;;;;;;38.50;34.90;;;6.80;99.90;;;;;;5004420;28;20388;-77
2023/05/15 00:48:28;;;;;;;39.80;36.00;;;6.80;99.90;;;;;;4992939;28;20128;-77
2023/05/15 00:50:57;;;;;;;43.28;38.97;;;6.80;99.90;;;;;;4992136;28;20073;-76
2023/05/15 00:53:27;;;;;;;42.13;38.00;;;7.00;99.90;;;;;;4995878;28;20053;-77
2023/05/15 00:55:56;;;;;;;41.03;36.92;;;6.90;99.90;;;;;;5012131;28;20038;-76
2023/05/15 00:58:25;;;;;;;37.78;34.47;;;6.70;99.90;;;;;;4981441;28;20042;-77
2023/05/15 01:00:52;;;;;;;39.95;36.05;;;6.70;99.90;;;;;;4977233;28;20042;-77
2023/05/15 01:03:19;;;;;;;39.55;35.53;;;6.60;99.90;;;;;;5001888;28;20132;-78
2023/05/15 01:05:46;;;;;;;38.47;34.95;;;6.50;99.90;;;;;;4999076;28;20048;-77
2023/05/15 01:08:44;;;;;;;41.00;37.08;;;6.50;99.90;;;;;;5001388;28;20407;-78
2023/05/15 01:11:13;;;;;;;40.10;35.75;;;6.40;99.90;;;;;;5013589;28;20045;-77
2023/05/15 01:13:40;;;;;;;39.15;35.65;;;6.40;99.90;;;;;;4996614;28;20582;-77
2023/05/15 01:16:08;;;;;;;40.47;36.72;;;6.30;99.90;;;;;;4999305;28;20041;-77
2023/05/15 01:18:35;;;;;;;40.53;36.72;;;6.40;99.90;;;;;;4984624;28;20398;-76
2023/05/15 01:21:30;;;;;;;41.90;37.53;;;6.40;99.90;;;;;;5007480;28;20044;-78
2023/05/15 01:24:15;;;;;;;43.13;38.72;;;6.60;99.90;;;;;;4996668;28;20132;-76
2023/05/15 01:27:12;;;;;;;43.42;39.28;;;6.60;99.90;;;;;;4997554;28;20510;-76
2023/05/15 01:29:51;;;;;;;43.90;39.53;;;6.40;99.90;;;;;;4994175;28;20140;-77
2023/05/15 01:32:22;;;;;;;44.70;39.97;;;6.50;99.90;;;;;;4999167;28;20144;-76
2023/05/15 01:35:01;;;;;;;44.25;39.65;;;6.50;99.90;;;;;;5009390;28;20064;-76
2023/05/15 01:37:30;;;;;;;41.70;37.63;;;6.40;99.90;;;;;;4998636;28;20045;-76
2023/05/15 01:40:01;;;;;;;42.95;38.83;;;6.30;99.90;;;;;;4965352;28;20034;-77
2023/05/15 01:42:31;;;;;;;44.55;39.83;;;6.10;99.90;;;;;;4998593;28;20129;-76
2023/05/15 01:45:03;;;;;;;43.55;39.20;;;6.10;99.90;;;;;;4998016;28;20665;-77
2023/05/15 01:47:40;;;;;;;47.60;42.40;;;6.10;99.90;;;;;;4995535;28;20134;-77
2023/05/15 01:50:10;;;;;;;44.65;40.03;;;6.20;99.90;;;;;;5001071;28;20041;-77
2023/05/15 01:52:41;;;;;;;45.50;40.75;;;6.20;99.90;;;;;;5002038;28;20635;-76
2023/05/15 01:55:09;;;;;;;45.10;40.55;;;6.20;99.90;;;;;;5003540;28;20052;-77
2023/05/15 01:57:37;;;;;;;44.58;40.13;;;6.00;99.90;;;;;;5017113;28;20933;-77
2023/05/15 02:00:05;;;;;;;43.88;39.63;;;6.00;99.90;;;;;;4992790;28;20052;-76
2023/05/15 02:02:41;;;;;;;44.45;40.05;;;6.00;99.90;;;;;;5029416;28;20041;-77
2023/05/15 02:05:08;;;;;;;43.03;38.95;;;5.90;99.90;;;;;;5003823;28;20049;-77
2023/05/15 02:07:36;;;;;;;45.40;40.90;;;6.00;99.90;;;;;;5020064;28;20713;-77
2023/05/15 02:10:03;;;;;;;43.60;39.40;;;6.10;99.90;;;;;;5001719;28;20081;-77
2023/05/15 02:12:31;;;;;;;43.50;39.15;;;6.20;99.90;;;;;;4998742;28;20050;-76
2023/05/15 02:14:58;;;;;;;47.00;41.65;;;6.20;99.90;;;;;;5004908;28;20124;-77
2023/05/15 02:17:27;;;;;;;52.88;43.72;;;6.20;99.90;;;;;;5004290;28;20072;-77
2023/05/15 02:19:54;;;;;;;47.72;42.70;;;6.10;99.90;;;;;;5010382;28;20518;-77
2023/05/15 02:22:21;;;;;;;48.72;43.60;;;6.00;99.90;;;;;;4995026;28;20045;-77
2023/05/15 02:24:48;;;;;;;50.63;45.20;;;6.00;99.90;;;;;;5016383;28;20045;-77
2023/05/15 02:27:26;;;;;;;54.45;43.60;;;6.10;99.90;;;;;;5003293;28;20042;-76
2023/05/15 02:30:25;;;;;;;50.47;45.08;;;6.00;99.90;;;;;;5007805;28;20049;-76
2023/05/15 02:33:03;;;;;;;49.53;43.17;;;5.90;99.90;;;;;;5013492;28;20080;-77
2023/05/15 02:35:33;;;;;;;50.72;45.17;;;6.00;99.90;;;;;;5005061;28;20053;-77
2023/05/15 02:38:05;;;;;;;49.42;44.03;;;6.10;99.90;;;;;;4977462;28;20049;-77
2023/05/15 02:40:34;;;;;;;48.95;43.67;;;6.10;99.90;;;;;;4983835;28;20041;-77
2023/05/15 02:43:01;;;;;;;52.97;44.75;;;6.10;99.90;;;;;;5001269;28;20041;-76
2023/05/15 02:45:29;;;;;;;48.70;43.53;;;6.10;99.90;;;;;;4986415;28;20520;-77
2023/05/15 02:47:57;;;;;;;45.75;41.15;;;6.00;99.90;;;;;;5012718;28;20115;-77
2023/05/15 02:50:25;;;;;;;43.55;39.10;;;5.90;99.90;;;;;;4996794;28;20092;-78
2023/05/15 02:53:03;;;;;;;43.50;39.08;;;5.70;99.90;;;;;;5001746;28;20060;-77
2023/05/15 02:55:30;;;;;;;42.22;37.80;;;5.70;99.90;;;;;;5000161;28;20706;-77
2023/05/15 02:57:58;;;;;;;43.17;39.00;;;5.60;99.90;;;;;;4984849;28;20546;-76
2023/05/15 03:00:24;;;;;;;44.80;40.17;;;5.50;99.90;;;;;;5002052;28;20050;-78
2023/05/15 03:02:52;;;;;;;42.80;38.30;;;5.50;99.90;;;;;;5002905;28;20037;-76
2023/05/15 03:05:19;;;;;;;44.92;40.20;;;5.50;99.90;;;;;;4993166;28;20034;-77
2023/05/15 03:07:45;;;;;;;48.50;42.63;;;5.60;99.90;;;;;;4994411;28;20049;-77
2023/05/15 03:10:12;;;;;;;44.97;40.47;;;5.60;99.90;;;;;;4994986;28;20522;-77
2023/05/15 03:12:39;;;;;;;47.00;42.22;;;5.80;99.90;;;;;;4987401;28;20148;-77
2023/05/15 03:15:06;;;;;;;47.95;43.15;;;5.80;99.90;;;;;;5021183;28;20047;-76
2023/05/15 03:17:33;;;;;;;44.97;40.58;;;5.70;99.90;;;;;;5012781;28;20060;-76
2023/05/15 03:20:00;;;;;;;46.78;41.92;;;5.60;99.90;;;;;;5000585;28;20030;-77
2023/05/15 03:22:26;;;;;;;44.20;39.50;;;5.60;99.90;;;;;;4998148;28;20045;-77
2023/05/15 03:24:53;;;;;;;48.38;43.45;;;5.50;99.90;;;;;;4986501;28;20041;-77
2023/05/15 03:27:20;;;;;;;48.25;42.85;;;5.60;99.90;;;;;;4999177;28;20049;-78
2023/05/15 03:29:49;;;;;;;51.38;45.58;;;5.60;99.90;;;;;;5003257;28;20037;-76
2023/05/15 03:32:16;;;;;;;57.30;46.50;;;5.60;99.90;;;;;;4975583;28;20121;-77
2023/05/15 03:34:44;;;;;;;53.25;45.53;;;5.70;99.90;;;;;;4979613;28;20133;-77
2023/05/15 03:37:10;;;;;;;52.58;45.05;;;5.70;99.90;;;;;;5002090;28;20050;-77
2023/05/15 03:39:37;;;;;;;50.28;44.85;;;5.70;99.90;;;;;;5010107;28;20045;-76
2023/05/15 03:42:04;;;;;;;52.03;44.83;;;5.60;99.90;;;;;;5002655;28;20514;-76
2023/05/15 03:44:31;;;;;;;46.70;41.85;;;5.50;99.90;;;;;;4997696;28;20133;-77
2023/05/15 03:46:57;;;;;;;49.60;44.33;;;5.40;99.90;;;;;;5001571;28;20128;-77
2023/05/15 03:49:24;;;;;;;46.92;41.67;;;5.40;99.90;;;;;;4994581;28;20060;-77
2023/05/15 03:51:51;;;;;;;46.22;41.67;;;5.40;99.90;;;;;;5003075;28;20042;-76
2023/05/15 03:54:18;;;;;;;48.35;43.42;;;5.30;99.90;;;;;;5016481;28;20053;-76
2023/05/15 03:56:45;;;;;;;47.95;43.00;;;5.20;99.90;;;;;;4997445;28;20636;-76
2023/05/15 03:59:11;;;;;;;47.78;42.65;;;5.30;99.90;;;;;;5002209;28;20041;-76
2023/05/15 04:01:38;;;;;;;50.90;45.60;;;5.30;99.90;;;;;;4999553;28;20495;-76
2023/05/15 04:04:25;;;;;;;48.25;43.53;;;5.20;99.90;;;;;;5013823;28;20041;-77
2023/05/15 04:06:51;;;;;;;51.50;46.10;;;5.30;99.90;;;;;;5006321;28;20044;-76
2023/05/15 04:09:18;;;;;;;50.80;45.80;;;5.30;99.90;;;;;;4982993;28;20594;-77
2023/05/15 04:11:45;;;;;;;53.70;47.92;;;5.30;99.90;;;;;;4982242;28;20033;-79
2023/05/15 04:14:12;;;;;;;53.42;47.80;;;5.30;99.90;;;;;;4977697;28;20140;-77
2023/05/15 04:16:39;;;;;;;54.38;47.72;;;5.30;99.90;;;;;;4976446;28;20547;-77
2023/05/15 04:19:06;;;;;;;56.45;47.95;;;5.30;99.90;;;;;;4965999;28;20027;-77
2023/05/15 04:21:33;;;;;;;53.53;47.78;;;5.30;99.90;;;;;;4972278;28;20049;-75
2023/05/15 04:24:00;;;;;;;52.65;47.00;;;5.50;99.90;;;;;;4975577;28;20131;-76
2023/05/15 04:26:26;;;;;;;52.75;47.25;;;5.50;99.90;;;;;;4977474;28;20677;-76
2023/05/15 04:28:55;;;;;;;56.42;50.10;;;5.50;99.90;;;;;;4973869;28;20046;-76
2023/05/15 04:31:28;;;;;;;53.58;47.97;;;5.50;99.90;;;;;;4976965;28;20056;-76
2023/05/15 04:33:55;;;;;;;51.78;46.17;;;5.60;99.90;;;;;;4976951;28;20054;-77
2023/05/15 04:36:22;;;;;;;50.88;45.58;;;5.80;99.90;;;;;;4980926;28;20108;-76
2023/05/15 04:38:48;;;;;;;52.20;46.83;;;5.80;99.90;;;;;;4978226;28;20033;-76
2023/05/15 04:41:15;;;;;;;51.42;45.95;;;6.00;99.90;;;;;;4981447;28;20034;-77
2023/05/15 04:43:41;;;;;;;52.85;47.05;;;6.00;99.90;;;;;;4979325;28;20719;-76
2023/05/15 04:46:08;;;;;;;48.40;43.45;;;6.10;99.90;;;;;;4978156;28;20046;-77
2023/05/15 04:48:35;;;;;;;48.33;43.42;;;6.10;99.90;;;;;;4964822;28;20053;-77
2023/05/15 04:51:02;;;;;;;49.75;44.65;;;6.30;99.90;;;;;;4969111;28;20072;-77
2023/05/15 04:53:28;;;;;;;49.75;44.47;;;6.40;99.90;;;;;;4995779;28;20499;-76
2023/05/15 04:55:55;;;;;;;48.97;43.78;;;6.50;99.90;;;;;;4978250;28;20048;-77
2023/05/15 04:58:22;;;;;;;48.47;43.55;;;6.50;99.90;;;;;;4996313;28;20073;-76
2023/05/15 05:00:49;;;;;;;48.42;43.65;;;6.60;99.90;;;;;;4993422;28;20033;-78
2023/05/15 05:03:16;;;;;;;46.03;41.53;;;6.70;99.90;;;;;;4981165;28;20068;-78
2023/05/15 05:05:43;;;;;;;42.80;38.80;;;6.80;99.90;;;;;;4972640;28;20042;-77
2023/05/15 05:08:10;;;;;;;40.75;36.80;;;7.00;99.90;;;;;;4976436;28;20042;-77
2023/05/15 05:10:36;;;;;;;36.70;32.97;;;7.20;99.90;;;;;;4980018;28;20617;-76
2023/05/15 05:13:03;;;;;;;34.72;31.15;;;7.40;99.90;;;;;;4971100;28;20585;-77
2023/05/15 05:15:30;;;;;;;31.02;28.15;;;7.70;99.90;;;;;;4976436;28;20137;-76
2023/05/15 05:17:56;;;;;;;29.13;26.63;;;8.10;99.90;;;;;;4979493;28;20128;-76
2023/05/15 05:20:23;;;;;;;29.35;26.50;;;8.30;99.90;;;;;;4987108;28;20109;-76
2023/05/15 05:22:50;;;;;;;33.33;30.15;;;8.60;99.90;;;;;;4976740;28;20040;-77
2023/05/15 05:25:17;;;;;;;33.35;30.67;;;8.90;99.90;;;;;;5002969;28;20050;-76
2023/05/15 05:27:44;;;;;;;35.67;32.72;;;9.20;99.90;;;;;;4997226;28;20052;-76
2023/05/15 05:30:11;;;;;;;36.28;33.35;;;9.40;99.90;;;;;;4996434;28;20050;-77
2023/05/15 05:32:38;;;;;;;35.72;32.92;;;9.40;99.90;;;;;;5003144;28;20128;-77
2023/05/15 05:35:05;;;;;;;37.25;34.05;;;9.60;99.90;;;;;;5002041;28;20145;-77
2023/05/15 05:37:31;;;;;;;39.00;35.60;;;10.00;99.90;;;;;;5000251;28;20060;-76
2023/05/15 05:39:58;;;;;;;37.78;34.70;;;10.10;99.90;;;;;;5019732;28;20063;-77
2023/05/15 05:42:25;;;;;;;39.13;35.92;;;10.10;99.90;;;;;;5039900;28;20045;-77
2023/05/15 05:44:52;;;;;;;38.60;35.08;;;10.10;99.90;;;;;;5003044;28;20166;-76
2023/05/15 05:47:19;;;;;;;37.53;34.30;;;10.30;99.90;;;;;;4989654;28;20742;-77
2023/05/15 05:49:46;;;;;;;35.83;32.67;;;10.30;99.90;;;;;;4990304;28;20050;-78
2023/05/15 05:52:14;;;;;;;37.67;34.45;;;10.50;99.90;;;;;;5002203;28;20046;-78
2023/05/15 05:54:41;;;;;;;36.03;32.75;;;10.50;99.90;;;;;;5016290;28;20671;-77
2023/05/15 05:57:08;;;;;;;34.08;31.02;;;10.60;99.90;;;;;;5017726;28;20733;-76
2023/05/15 05:59:36;;;;;;;36.83;33.58;;;11.00;99.90;;;;;;5000484;28;20041;-77
2023/05/15 06:02:03;;;;;;;35.60;32.72;;;11.50;99.90;;;;;;4987616;28;20038;-77
2023/05/15 06:04:32;;;;;;;39.35;36.25;;;11.90;99.90;;;;;;4986616;28;20037;-77
2023/05/15 06:06:59;;;;;;;38.08;35.00;;;12.20;99.90;;;;;;4990251;28;20638;-77
2023/05/15 06:09:26;;;;;;;37.60;34.50;;;12.50;99.90;;;;;;4992690;28;20058;-77
2023/05/15 06:11:52;;;;;;;36.40;33.70;;;12.80;99.90;;;;;;5002994;28;20042;-77
2023/05/15 06:14:19;;;;;;;37.72;34.58;;;13.10;99.90;;;;;;4999860;28;20408;-76
2023/05/15 06:16:47;;;;;;;37.85;35.05;;;13.60;99.90;;;;;;4997357;28;20042;-77
2023/05/15 06:19:13;;;;;;;38.58;35.65;;;13.80;99.90;;;;;;5004987;28;20040;-77
2023/05/15 06:21:40;;;;;;;39.90;36.70;;;14.20;99.90;;;;;;5001383;28;20045;-77
2023/05/15 06:24:07;;;;;;;39.40;36.25;;;14.40;99.90;;;;;;5012142;28;20124;-77
2023/05/15 06:26:34;;;;;;;39.65;36.65;;;14.60;99.90;;;;;;4999567;28;20626;-77
2023/05/15 06:29:00;;;;;;;39.10;36.35;;;14.80;99.90;;;;;;5000687;28;20056;-77
2023/05/15 06:31:27;;;;;;;37.60;34.78;;;15.20;99.90;;;;;;5001797;28;20038;-76
2023/05/15 06:33:54;;;;;;;38.35;34.92;;;15.50;99.90;;;;;;4989425;28;20049;-77
2023/05/15 06:36:21;;;;;;;38.47;35.67;;;15.60;99.90;;;;;;4993018;28;20050;-77
2023/05/15 06:38:48;;;;;;;38.83;36.00;;;15.60;99.90;;;;;;5014761;28;20572;-77
2023/05/15 06:41:14;;;;;;;40.95;37.80;;;15.50;99.90;;;;;;5014549;28;20049;-77
2023/05/15 06:43:41;;;;;;;39.40;36.15;;;15.70;99.90;;;;;;5011191;28;20118;-77
2023/05/15 06:46:08;;;;;;;39.88;37.03;;;15.70;99.90;;;;;;5005979;28;20605;-77
2023/05/15 06:48:35;;;;;;;41.92;38.88;;;15.70;99.90;;;;;;5001021;28;20052;-76
2023/05/15 06:51:02;;;;;;;41.17;38.15;;;15.60;99.90;;;;;;5001991;28;20049;-76
2023/05/15 06:53:29;;;;;;;42.22;39.10;;;15.60;99.90;;;;;;5003672;28;20146;-76
2023/05/15 06:55:56;;;;;;;43.15;39.92;;;15.90;99.90;;;;;;4986558;28;20042;-75
2023/05/15 06:58:23;;;;;;;40.53;37.42;;;16.00;99.90;;;;;;4988794;28;20050;-77
2023/05/15 07:00:50;;;;;;;41.58;38.60;;;16.10;99.90;;;;;;4986482;28;20210;-75
2023/05/15 07:03:18;;;;;;;41.13;38.08;;;16.20;99.90;;;;;;5001307;28;20515;-78
2023/05/15 07:05:45;;;;;;;40.33;37.15;;;16.20;99.90;;;;;;5003323;28;20052;-78
2023/05/15 07:08:12;;;;;;;39.53;36.65;;;16.30;99.90;;;;;;5006343;28;20054;-76
2023/05/15 07:10:38;;;;;;;41.80;38.35;;;16.40;99.90;;;;;;4995826;28;20042;-77
2023/05/15 07:13:05;;;;;;;43.08;39.88;;;16.50;99.90;;;;;;5000405;28;20052;-77
2023/05/15 07:15:32;;;;;;;43.55;40.45;;;16.50;99.90;;;;;;5001462;28;20064;-75
2023/05/15 07:17:59;;;;;;;42.70;39.47;;;16.60;99.90;;;;;;5000141;28;20057;-77
2023/05/15 07:20:25;;;;;;;41.83;38.60;;;16.80;99.90;;;;;;4986788;28;20053;-77
2023/05/15 07:22:58;;;;;;;41.33;37.95;;;17.00;99.90;;;;;;4982979;28;21889;-75
2023/05/15 07:25:27;;;;;;;40.88;37.97;;;16.90;99.90;;;;;;4999931;28;20504;-76
2023/05/15 07:27:54;;;;;;;41.47;38.17;;;16.60;99.90;;;;;;5001020;28;20112;-76
2023/05/15 07:30:21;;;;;;;41.45;38.25;;;16.70;99.90;;;;;;5000036;28;20054;-77
2023/05/15 07:32:49;;;;;;;41.05;37.92;;;16.60;99.90;;;;;;4998122;28;20057;-75
2023/05/15 07:35:16;;;;;;;40.95;37.85;;;16.90;99.90;;;;;;5001976;28;20060;-78
2023/05/15 07:37:42;;;;;;;42.20;39.00;;;17.10;99.90;;;;;;4997254;28;20042;-75
2023/05/15 07:40:09;;;;;;;40.17;37.17;;;17.10;99.90;;;;;;4999513;28;20046;-76
2023/05/15 07:42:38;;;;;;;41.03;37.95;;;17.10;99.90;;;;;;5023176;28;20052;-75
2023/05/15 07:45:06;;;;;;;39.60;36.85;;;17.50;99.90;;;;;;4993832;28;20041;-76
2023/05/15 07:47:34;;;;;;;39.15;36.15;;;17.70;99.90;;;;;;5002504;28;20083;-75
2023/05/15 07:50:01;;;;;;;39.60;36.55;;;17.50;99.90;;;;;;4990074;28;20048;-76
2023/05/15 07:52:28;;;;;;;40.85;37.78;;;17.50;99.90;;;;;;4992308;28;20054;-76
2023/05/15 07:54:54;;;;;;;40.90;37.25;;;17.50;99.90;;;;;;4999193;28;20049;-78
2023/05/15 07:57:22;;;;;;;39.53;36.38;;;17.70;99.90;;;;;;5001508;28;20608;-76
2023/05/15 07:59:48;;;;;;;40.80;37.80;;;17.90;99.90;;;;;;4998770;28;20059;-75
2023/05/15 08:02:15;;;;;;;41.10;37.90;;;17.80;99.90;;;;;;4986175;28;20673;-76
2023/05/15 08:04:42;;;;;;;41.15;38.17;;;17.70;99.90;;;;;;4998568;28;20048;-76
2023/05/15 08:07:08;;;;;;;42.05;39.05;;;17.80;99.90;;;;;;5001565;28;20034;-76
2023/05/15 08:09:35;;;;;;;40.40;37.17;;;18.10;99.90;;;;;;4996090;28;20073;-76
2023/05/15 08:12:16;;;;;;;41.20;38.00;;;18.00;99.90;;;;;;4986688;28;20037;-76
2023/05/15 08:14:43;;;;;;;40.50;37.55;;;18.10;99.90;;;;;;4998932;28;20118;-77
2023/05/15 08:17:10;;;;;;;41.03;38.20;;;18.00;99.90;;;;;;4985464;28;20124;-76
2023/05/15 08:19:37;;;;;;;42.13;39.13;;;17.90;99.90;;;;;;5000193;28;20057;-77
2023/05/15 08:22:04;;;;;;;41.85;38.95;;;18.00;99.90;;;;;;5001109;28;20491;-77
2023/05/15 08:24:30;;;;;;;40.08;37.28;;;18.00;99.90;;;;;;5001779;28;20064;-75
2023/05/15 08:27:00;;;;;;;41.17;38.17;;;18.20;99.90;;;;;;4985256;28;20045;-77
2023/05/15 08:29:26;;;;;;;40.92;37.78;;;18.10;99.90;;;;;;5004874;28;20550;-76
2023/05/15 08:31:53;;;;;;;41.20;37.95;;;18.10;99.90;;;;;;5023830;28;20664;-76
2023/05/15 08:34:20;;;;;;;41.05;37.90;;;18.30;99.90;;;;;;5013025;28;20495;-76
2023/05/15 08:36:46;;;;;;;41.78;38.72;;;18.30;99.90;;;;;;4998323;28;20496;-76
2023/05/15 08:39:13;;;;;;;42.20;39.10;;;18.30;99.90;;;;;;5012055;28;20065;-76
2023/05/15 08:42:06;;;;;;;42.72;39.75;;;18.30;99.90;;;;;;5018741;28;20124;-76
2023/05/15 08:44:33;;;;;;;42.72;39.13;;;18.40;99.90;;;;;;4998044;28;20046;-77
2023/05/15 08:47:00;;;;;;;43.60;40.53;;;18.70;99.90;;;;;;4997717;28;20077;-77
2023/05/15 08:49:43;;;;;;;43.47;40.38;;;18.60;99.90;;;;;;4976945;28;20053;-77
2023/05/15 08:52:10;;;;;;;43.88;40.60;;;18.50;99.90;;;;;;4997089;28;20047;-76
2023/05/15 08:54:39;;;;;;;46.28;42.35;;;18.50;99.90;;;;;;4993580;28;20049;-78
2023/05/15 08:57:06;;;;;;;43.55;40.25;;;18.50;99.90;;;;;;4993002;28;20045;-76
2023/05/15 08:59:33;;;;;;;43.17;39.95;;;18.50;99.90;;;;;;5000735;28;20145;-76
2023/05/15 09:02:01;;;;;;;42.90;39.60;;;18.60;99.90;;;;;;5008276;28;20040;-77
2023/05/15 09:04:27;;;;;;;44.08;40.88;;;18.60;99.90;;;;;;5001065;28;20376;-77
2023/05/15 09:06:55;;;;;;;43.28;39.83;;;18.60;99.90;;;;;;5010564;28;20714;-77
2023/05/15 09:09:23;;;;;;;42.97;40.08;;;18.90;99.90;;;;;;5031843;28;20051;-77
2023/05/15 09:11:50;;;;;;;44.92;41.72;;;18.70;99.90;;;;;;4998756;28;20598;-76
2023/05/15 09:14:17;;;;;;;44.45;41.45;;;19.10;99.90;;;;;;5017700;28;20479;-76
2023/05/15 09:16:48;;;;;;;47.95;44.65;;;19.30;99.90;;;;;;5017060;28;20065;-78
2023/05/15 09:19:17;;;;;;;45.88;42.40;;;19.30;99.90;;;;;;4987320;28;20629;-75
2023/05/15 09:21:44;;;;;;;46.20;42.85;;;19.50;99.90;;;;;;4994483;28;20061;-78
2023/05/15 09:24:25;;;;;;;45.47;42.17;;;19.10;99.90;;;;;;5004739;28;20038;-77
2023/05/15 09:27:07;;;;;;;46.30;43.10;;;19.30;99.90;;;;;;5006317;28;20040;-76
2023/05/15 09:29:36;;;;;;;46.17;42.88;;;19.20;99.90;;;;;;4997767;28;20050;-75
2023/05/15 09:32:04;;;;;;;47.10;43.75;;;19.10;99.90;;;;;;5010121;28;20550;-75
2023/05/15 09:34:33;;;;;;;46.53;43.30;;;19.20;99.90;;;;;;5022074;28;20045;-77
2023/05/15 09:37:01;;;;;;;49.80;46.20;;;19.60;99.90;;;;;;4990443;28;20088;-77
2023/05/15 09:39:28;;;;;;;48.58;44.75;;;19.80;99.90;;;;;;5032243;28;20077;-77
2023/05/15 09:42:12;;;;;;;49.95;46.35;;;19.90;99.90;;;;;;5028425;28;20061;-75
2023/05/15 09:44:43;;;;;;;49.78;46.08;;;19.60;99.90;;;;;;5015663;28;20045;-76
2023/05/15 09:47:15;;;;;;;47.22;43.80;;;19.80;99.90;;;;;;5000569;28;20042;-76
2023/05/15 09:49:46;;;;;;;47.83;44.40;;;19.90;99.90;;;;;;5018075;28;20061;-76
2023/05/15 09:52:15;;;;;;;47.03;43.45;;;20.00;99.90;;;;;;5004976;28;20184;-77
2023/05/15 09:54:45;;;;;;;50.65;47.13;;;20.00;99.90;;;;;;5019080;28;20141;-76
2023/05/15 09:57:20;;;;;;;50.93;47.17;;;19.90;99.90;;;;;;4988414;28;20045;-77
2023/05/15 09:59:47;;;;;;;51.63;47.60;;;20.00;99.90;;;;;;5001302;28;20041;-76
2023/05/15 10:02:31;;;;;;;53.50;49.50;;;20.40;99.90;;;;;;4993885;28;20048;-77
2023/05/15 10:04:58;;;;;;;49.85;46.25;;;20.60;99.90;;;;;;4995153;28;20044;-75
2023/05/15 10:07:32;;;;;;;49.58;45.97;;;20.60;99.90;;;;;;4991748;28;20042;-76
2023/05/15 10:10:01;;;;;;;49.63;45.72;;;20.40;99.90;;;;;;5014024;28;20049;-76
2023/05/15 10:12:30;;;;;;;56.92;52.70;;;20.00;99.90;;;;;;4998621;28;20099;-76
2023/05/15 10:14:59;;;;;;;57.75;53.22;;;20.00;99.90;;;;;;4993961;28;20440;-77
2023/05/15 10:17:33;;;;;;;58.05;53.72;;;20.10;99.90;;;;;;5018912;28;20041;-76
2023/05/15 10:20:01;;;;;;;55.45;51.28;;;20.20;99.90;;;;;;5007937;28;20049;-76
2023/05/15 10:22:29;;;;;;;56.95;52.10;;;20.40;99.90;;;;;;4995616;28;20129;-77
2023/05/15 10:25:02;;;;;;;56.80;52.22;;;20.60;99.90;;;;;;4989330;28;20092;-75
2023/05/15 10:27:29;;;;;;;56.50;52.13;;;20.40;99.90;;;;;;4997724;28;20050;-76
2023/05/15 10:29:57;;;;;;;55.92;51.15;;;20.60;99.90;;;;;;4988677;28;20071;-76
2023/05/15 10:32:25;;;;;;;54.60;50.25;;;21.10;99.90;;;;;;4980509;28;20099;-75
2023/05/15 10:34:53;;;;;;;54.15;49.80;;;20.90;99.90;;;;;;5001851;28;20444;-76
2023/05/15 10:37:21;;;;;;;58.42;53.58;;;20.60;99.90;;;;;;5003125;28;20045;-77
2023/05/15 10:39:49;;;;;;;60.70;55.25;;;20.40;99.90;;;;;;5005143;28;20045;-75
2023/05/15 10:42:17;;;;;;;58.40;53.20;;;19.80;99.90;;;;;;4996891;28;20089;-77
2023/05/15 10:44:44;;;;;;;61.08;55.70;;;19.70;99.90;;;;;;5024892;28;20038;-75
2023/05/15 10:47:11;;;;;;;62.38;56.78;;;19.70;99.90;;;;;;4996738;28;20530;-77
2023/05/15 10:49:38;;;;;;;63.10;57.47;;;19.40;99.90;;;;;;5005775;28;20698;-76
2023/05/15 10:52:05;;;;;;;67.07;61.00;;;19.00;99.90;;;;;;4997063;28;20072;-77
2023/05/15 10:54:33;;;;;;;63.45;57.63;;;18.90;99.90;;;;;;5021343;28;20415;-77
2023/05/15 10:56:59;;;;;;;66.50;60.33;;;18.70;99.90;;;;;;4986283;28;20088;-76
2023/05/15 10:59:31;;;;;;;68.72;62.17;;;18.70;99.90;;;;;;5002155;28;20220;-76
2023/05/15 11:02:18;;;;;;;68.07;61.63;;;18.70;99.90;;;;;;5016609;28;20049;-76
2023/05/15 11:04:44;;;;;;;67.90;61.50;;;18.80;99.90;;;;;;4993281;28;20038;-77
2023/05/15 11:07:14;;;;;;;65.90;59.60;;;18.90;99.90;;;;;;4991864;28;20653;-77
2023/05/15 11:09:40;;;;;;;59.92;54.40;;;18.90;99.90;;;;;;5002146;28;20084;-76
2023/05/15 11:12:09;;;;;;;61.75;56.05;;;18.60;99.90;;;;;;5015340;28;20056;-76
2023/05/15 11:15:02;;;;;;;61.13;55.40;;;18.40;99.90;;;;;;5000951;28;20037;-77
2023/05/15 11:17:32;;;;;;;59.47;53.88;;;18.20;99.90;;;;;;4983677;28;20045;-76
2023/05/15 11:19:59;;;;;;;47.90;43.85;;;18.00;99.90;;;;;;4996323;28;20677;-75
2023/05/15 11:22:31;;;;;;;36.88;34.08;;;17.80;99.90;;;;;;5000786;28;20045;-78
2023/05/15 11:25:08;;;;;;;40.38;37.30;;;16.80;99.90;;;;;;5005053;28;20042;-78
2023/05/15 11:27:39;;;;;;;39.75;36.85;;;15.10;99.90;;;;;;5010577;28;20478;-78
2023/05/15 11:30:12;;;;;;;40.58;37.78;;;12.80;99.90;;;;;;5000670;28;20079;-79
2023/05/15 11:32:50;;;;;;;50.88;47.15;;;11.70;99.90;;;;;;4989421;28;20107;-78
2023/05/15 11:35:22;;;;;;;47.67;44.00;;;11.50;99.90;;;;;;4992522;28;20573;-77
2023/05/15 11:37:50;;;;;;;52.45;48.80;;;11.50;99.90;;;;;;4992885;28;20145;-78
2023/05/15 11:40:21;;;;;;;42.67;39.33;;;11.60;99.90;;;;;;5000664;28;20042;-78
2023/05/15 11:43:00;;;;;;;40.45;37.20;;;11.90;99.90;;;;;;5010557;28;20046;-78
2023/05/15 11:45:29;;;;;;;39.80;36.58;;;12.10;99.90;;;;;;5001040;28;20053;-78
2023/05/15 11:47:58;;;;;;;34.17;31.52;;;12.20;99.90;;;;;;5020393;28;20525;-77
2023/05/15 11:50:26;;;;;;;32.97;30.48;;;12.30;99.90;;;;;;4998179;28;20061;-78
2023/05/15 11:52:54;;;;;;;32.00;29.40;;;12.60;99.90;;;;;;5013038;28;20060;-78
2023/05/15 11:55:22;;;;;;;30.00;27.70;;;13.00;99.90;;;;;;4999960;28;20052;-78
2023/05/15 11:57:48;;;;;;;28.80;26.60;;;13.20;99.90;;;;;;5000004;28;20171;-78
2023/05/15 12:00:15;;;;;;;30.80;28.50;;;13.30;99.90;;;;;;5005093;28;20034;-78
2023/05/15 12:02:42;;;;;;;32.05;29.42;;;13.30;99.90;;;;;;4987960;28;20050;-77
2023/05/15 12:05:09;;;;;;;31.77;28.80;;;13.40;99.90;;;;;;4979420;28;20046;-78
2023/05/15 12:07:45;;;;;;;32.75;29.98;;;13.60;99.90;;;;;;5000565;28;20081;-78
2023/05/15 12:10:12;;;;;;;33.58;30.98;;;13.60;99.90;;;;;;5009792;28;20076;-78
2023/05/15 12:12:44;;;;;;;32.70;29.90;;;13.60;99.90;;;;;;4996438;28;20050;-78
2023/05/15 12:15:13;;;;;;;33.15;29.60;;;13.90;99.90;;;;;;4994229;28;20053;-78
2023/05/15 12:17:40;;;;;;;35.90;32.83;;;14.00;99.90;;;;;;4993996;28;20132;-78
2023/05/15 12:20:15;;;;;;;30.95;28.55;;;14.10;99.90;;;;;;5004236;28;20049;-79
2023/05/15 12:22:41;;;;;;;34.58;31.60;;;14.60;99.90;;;;;;5019270;28;20052;-79
2023/05/15 12:25:10;;;;;;;30.15;27.73;;;14.80;99.90;;;;;;5017227;28;21765;-80
2023/05/15 12:27:41;;;;;;;29.88;27.63;;;14.90;99.90;;;;;;4998879;28;20050;-78
2023/05/15 12:30:10;;;;;;;34.20;31.75;;;15.30;99.90;;;;;;4999694;28;20051;-79
2023/05/15 12:32:37;;;;;;;35.00;31.95;;;15.50;99.90;;;;;;5001432;28;20049;-78
2023/05/15 12:35:05;;;;;;;35.85;32.75;;;15.40;99.90;;;;;;5009204;28;20757;-79
2023/05/15 12:37:33;;;;;;;34.13;31.35;;;15.10;99.90;;;;;;4979701;28;20521;-79
2023/05/15 12:40:09;;;;;;;38.72;35.67;;;14.70;99.90;;;;;;5006769;28;20060;-80